Time;durP1;ratioP1;P1;durP2;ratioP2;P2;SDS_P1;SDS_P2;PMS_P1;PMS_P2;Temp;Humidity;BMP_temperature;BMP_pressure;BME280_temperature;BME280_humidity;BME280_pressure;Samples;Min_cycle;Max_cycle;Signal;HPM_P1;HPM_P2
2023/08/14 00:01:29;;;;;;;0.10;0.10;;;;;;;20.68;79.32;97679.44;5067423;28;20079;-69
2023/08/14 00:03:58;;;;;;;0.10;0.10;;;;;;;20.69;79.15;97681.09;5067526;28;20039;-69
2023/08/14 00:06:26;;;;;;;0.15;0.10;;;;;;;20.70;79.25;97678.13;5073079;28;20051;-69
2023/08/14 00:08:54;;;;;;;0.00;0.00;;;;;;;20.58;79.45;97685.59;5064995;28;20040;-69
2023/08/14 00:11:21;;;;;;;0.10;0.10;;;;;;;20.46;79.40;97683.03;5069383;28;20037;-69
2023/08/14 00:13:50;;;;;;;0.13;0.13;;;;;;;20.33;80.29;97690.75;5067854;28;20448;-69
2023/08/14 00:16:18;;;;;;;0.10;0.10;;;;;;;20.24;80.97;97689.56;5054106;28;20037;-69
2023/08/14 00:18:46;;;;;;;0.10;0.10;;;;;;;20.20;81.05;97696.56;5063657;28;20054;-69
2023/08/14 00:21:15;;;;;;;0.03;0.03;;;;;;;20.23;81.32;97691.44;5068428;28;20096;-69
2023/08/14 00:23:43;;;;;;;0.20;0.20;;;;;;;20.19;81.43;97690.31;5070371;28;20040;-70
2023/08/14 00:26:11;;;;;;;0.10;0.10;;;;;;;20.22;81.30;97692.53;5073484;28;20055;-70
2023/08/14 00:28:39;;;;;;;0.10;0.10;;;;;;;20.21;81.31;97690.06;5072547;28;20119;-69
2023/08/14 00:31:07;;;;;;;0.00;0.00;;;;;;;20.16;81.70;97679.97;5055495;28;20531;-69
2023/08/14 00:33:35;;;;;;;0.03;0.03;;;;;;;20.24;81.24;97682.25;5058709;28;20048;-69
2023/08/14 00:36:05;;;;;;;0.10;0.10;;;;;;;20.25;81.15;97683.03;5066815;28;20417;-69
2023/08/14 00:38:34;;;;;;;0.10;0.10;;;;;;;20.15;81.00;97681.84;5059701;28;20414;-69
2023/08/14 00:41:03;;;;;;;0.10;0.10;;;;;;;20.08;81.30;97681.25;5062748;28;20044;-70
2023/08/14 00:43:31;;;;;;;0.10;0.10;;;;;;;20.04;81.61;97680.09;5067172;28;20111;-69
2023/08/14 00:45:58;;;;;;;0.10;0.10;;;;;;;20.16;80.63;97685.38;5060126;28;20045;-69
2023/08/14 00:48:26;;;;;;;0.10;0.10;;;;;;;20.04;81.58;97676.56;5063252;28;20095;-70
2023/08/14 00:50:55;;;;;;;0.20;0.20;;;;;;;20.20;80.39;97678.41;5063116;28;20429;-70
2023/08/14 00:53:24;;;;;;;0.00;0.00;;;;;;;20.15;80.26;97679.16;5072924;28;20683;-70
2023/08/14 00:55:53;;;;;;;0.10;0.10;;;;;;;20.15;80.36;97676.44;5067113;28;20114;-69
2023/08/14 00:58:21;;;;;;;0.10;0.10;;;;;;;20.15;80.25;97676.44;5064285;28;20094;-69
2023/08/14 01:00:48;;;;;;;0.10;0.10;;;;;;;19.95;81.20;97669.94;5075480;28;20050;-69
2023/08/14 01:03:17;;;;;;;0.10;0.10;;;;;;;19.93;80.78;97672.13;5071495;28;20498;-69
2023/08/14 01:05:45;;;;;;;0.10;0.10;;;;;;;19.72;82.04;97662.91;5058880;28;20114;-69
2023/08/14 01:08:13;;;;;;;0.10;0.10;;;;;;;19.77;81.70;97661.09;5071432;28;20054;-69
2023/08/14 01:10:50;;;;;;;0.10;0.10;;;;;;;19.77;81.71;97661.09;5084392;28;20130;-69
2023/08/14 01:13:27;;;;;;;0.20;0.20;;;;;;;19.75;81.69;97655.09;5065946;28;20410;-70
2023/08/14 01:15:56;;;;;;;0.00;0.00;;;;;;;19.85;81.20;97661.69;5060158;28;20045;-70
2023/08/14 01:18:25;;;;;;;0.10;0.10;;;;;;;19.86;81.29;97661.47;5059809;28;20098;-70
2023/08/14 01:21:11;;;;;;;0.13;0.10;;;;;;;19.92;80.17;97668.59;5056195;28;20059;-70
2023/08/14 01:23:53;;;;;;;0.10;0.10;;;;;;;19.69;81.36;97666.13;5070294;28;20037;-70
2023/08/14 01:26:23;;;;;;;0.10;0.10;;;;;;;19.67;81.38;97669.06;5063379;28;20135;-70
2023/08/14 01:28:50;;;;;;;0.00;0.00;;;;;;;19.62;81.90;97676.31;5073000;28;20118;-69
2023/08/14 01:31:17;;;;;;;0.17;0.17;;;;;;;19.55;82.38;97673.78;5067799;28;20036;-69
2023/08/14 01:33:45;;;;;;;0.20;0.20;;;;;;;19.30;83.92;97665.28;5062981;28;20047;-70
2023/08/14 01:36:17;;;;;;;0.03;0.03;;;;;;;19.32;84.16;97655.81;5066373;28;20127;-70
2023/08/14 01:38:54;;;;;;;0.10;0.10;;;;;;;19.41;83.17;97651.63;5056243;28;20048;-70
2023/08/14 01:41:27;;;;;;;0.10;0.10;;;;;;;19.43;83.26;97662.19;5069019;28;20143;-69
2023/08/14 01:43:57;;;;;;;0.08;0.08;;;;;;;19.47;83.10;97657.13;5061101;28;20040;-70
2023/08/14 01:46:25;;;;;;;0.10;0.10;;;;;;;19.55;82.50;97649.41;5064909;28;20044;-69
2023/08/14 01:48:53;;;;;;;0.10;0.10;;;;;;;19.54;82.50;97655.06;5066740;28;20048;-70
2023/08/14 01:51:22;;;;;;;0.15;0.15;;;;;;;19.40;82.94;97654.59;5066996;28;20036;-69
2023/08/14 01:53:49;;;;;;;0.10;0.10;;;;;;;19.29;83.38;97650.94;5063140;28;20036;-68
2023/08/14 01:56:17;;;;;;;0.10;0.10;;;;;;;19.25;83.73;97647.06;5070191;28;20059;-69
2023/08/14 01:58:46;;;;;;;0.10;0.10;;;;;;;19.10;84.39;97635.22;5054984;28;20052;-70
2023/08/14 02:01:14;;;;;;;0.10;0.10;;;;;;;19.22;83.88;97634.03;5055210;28;20091;-70
2023/08/14 02:03:41;;;;;;;0.10;0.10;;;;;;;19.26;83.42;97646.00;5070182;28;20139;-70
2023/08/14 02:06:09;;;;;;;0.08;0.08;;;;;;;19.27;83.39;97638.69;5057664;28;20051;-70
2023/08/14 02:08:38;;;;;;;0.20;0.20;;;;;;;19.30;83.08;97635.50;5070718;28;20078;-70
2023/08/14 02:11:09;;;;;;;0.10;0.10;;;;;;;19.32;82.74;97645.00;5068433;28;20147;-70
2023/08/14 02:13:37;;;;;;;0.10;0.10;;;;;;;19.28;82.80;97627.63;5059871;28;20040;-70
2023/08/14 02:16:06;;;;;;;0.20;0.20;;;;;;;19.26;82.25;97629.75;5062198;28;20045;-69
2023/08/14 02:18:34;;;;;;;0.10;0.10;;;;;;;19.23;82.22;97627.53;5069274;28;20554;-69
2023/08/14 02:21:01;;;;;;;0.10;0.10;;;;;;;19.08;82.50;97624.63;5066134;28;20053;-71
2023/08/14 02:23:29;;;;;;;0.10;0.10;;;;;;;18.93;83.36;97630.63;5057699;28;20052;-69
2023/08/14 02:25:57;;;;;;;0.10;0.10;;;;;;;18.95;83.58;97631.19;5064806;28;20367;-70
2023/08/14 02:28:25;;;;;;;0.10;0.10;;;;;;;18.95;84.00;97628.50;5058896;28;20041;-70
2023/08/14 02:30:53;;;;;;;0.10;0.10;;;;;;;18.92;84.31;97630.88;5059693;28;20076;-70
2023/08/14 02:33:22;;;;;;;0.10;0.10;;;;;;;18.83;84.69;97637.75;5056334;28;20051;-69
2023/08/14 02:35:49;;;;;;;0.10;0.10;;;;;;;18.76;85.06;97627.13;5058345;28;20127;-70
2023/08/14 02:38:17;;;;;;;0.10;0.10;;;;;;;18.95;84.09;97639.31;5053995;28;20037;-70
2023/08/14 02:40:45;;;;;;;0.10;0.10;;;;;;;18.96;84.11;97640.13;5064309;28;20050;-70
2023/08/14 02:43:12;;;;;;;0.10;0.10;;;;;;;18.97;84.03;97637.19;5055722;28;20088;-72
2023/08/14 02:45:40;;;;;;;0.20;0.20;;;;;;;18.96;83.95;97634.72;5063336;28;20045;-70
2023/08/14 02:48:10;;;;;;;0.10;0.10;;;;;;;18.90;84.25;97646.50;5061432;28;20131;-72
2023/08/14 02:50:40;;;;;;;0.10;0.10;;;;;;;19.06;83.39;97640.28;5067337;28;20617;-69
2023/08/14 02:53:08;;;;;;;0.10;0.10;;;;;;;18.98;83.91;97646.13;5070797;28;20536;-69
2023/08/14 02:55:35;;;;;;;0.00;0.00;;;;;;;19.05;83.63;97655.72;5060913;28;20073;-69
2023/08/14 02:58:03;;;;;;;0.10;0.10;;;;;;;18.93;83.28;97641.44;5062005;28;20060;-70
2023/08/14 03:00:31;;;;;;;0.10;0.10;;;;;;;18.85;83.87;97641.88;5061535;28;20464;-69
2023/08/14 03:02:59;;;;;;;0.10;0.10;;;;;;;18.78;84.27;97643.09;5066703;28;20047;-69
2023/08/14 03:05:27;;;;;;;0.10;0.10;;;;;;;18.81;84.01;97653.41;5055883;28;20717;-70
2023/08/14 03:07:56;;;;;;;0.00;0.00;;;;;;;18.79;83.98;97652.84;5063033;28;20053;-70
2023/08/14 03:10:25;;;;;;;0.20;0.20;;;;;;;18.80;84.33;97654.47;5063219;28;20068;-70
2023/08/14 03:12:53;;;;;;;0.10;0.10;;;;;;;18.91;84.08;97646.28;5061250;28;20101;-70
2023/08/14 03:15:20;;;;;;;0.10;0.10;;;;;;;18.86;84.38;97648.09;5076283;28;20041;-70
2023/08/14 03:17:48;;;;;;;0.03;0.03;;;;;;;18.95;83.83;97650.13;5066579;28;20040;-70
2023/08/14 03:20:16;;;;;;;0.00;0.00;;;;;;;18.82;83.98;97663.97;5065884;28;20604;-70
2023/08/14 03:22:45;;;;;;;0.00;0.00;;;;;;;18.72;84.61;97655.69;5064471;28;20044;-71
2023/08/14 03:25:14;;;;;;;0.10;0.10;;;;;;;18.70;84.37;97663.22;5076954;28;20051;-70
2023/08/14 03:27:42;;;;;;;0.10;0.10;;;;;;;18.80;84.40;97652.59;5062413;28;20091;-70
2023/08/14 03:30:12;;;;;;;0.10;0.10;;;;;;;18.78;84.16;97653.91;5063294;28;20040;-70
2023/08/14 03:32:40;;;;;;;0.10;0.10;;;;;;;18.81;83.98;97642.59;5064433;28;20127;-71
2023/08/14 03:35:08;;;;;;;0.10;0.10;;;;;;;18.87;83.82;97653.25;5078087;28;20067;-71
2023/08/14 03:37:36;;;;;;;0.10;0.10;;;;;;;18.87;83.89;97652.44;5069117;28;20044;-70
2023/08/14 03:40:05;;;;;;;0.13;0.13;;;;;;;18.80;83.86;97654.47;5056329;28;20394;-70
2023/08/14 03:42:34;;;;;;;0.20;0.20;;;;;;;18.64;84.55;97654.22;5057248;28;20033;-69
2023/08/14 03:45:04;;;;;;;0.10;0.10;;;;;;;18.61;84.75;97659.28;5064660;28;20136;-70
2023/08/14 03:47:31;;;;;;;0.00;0.00;;;;;;;18.72;84.30;97657.59;5067559;28;20041;-70
2023/08/14 03:49:59;;;;;;;0.03;0.03;;;;;;;18.80;84.22;97660.69;5074612;28;20060;-69
2023/08/14 03:52:27;;;;;;;0.10;0.10;;;;;;;18.82;84.08;97653.16;5061089;28;20037;-69
2023/08/14 03:54:55;;;;;;;0.10;0.10;;;;;;;18.84;84.55;97631.28;5067883;28;20072;-69
2023/08/14 03:57:22;;;;;;;0.10;0.10;;;;;;;18.93;84.15;97635.22;5066548;28;20135;-70
2023/08/14 03:59:53;;;;;;;0.20;0.20;;;;;;;19.05;83.44;97636.75;5065727;28;20456;-69
2023/08/14 04:02:20;;;;;;;0.10;0.10;;;;;;;19.02;83.38;97633.72;5063899;28;20040;-69
2023/08/14 04:04:48;;;;;;;0.10;0.10;;;;;;;19.08;83.84;97638.16;5062075;28;20128;-69
2023/08/14 04:07:16;;;;;;;0.10;0.10;;;;;;;19.14;83.44;97642.56;5066338;28;20064;-69
2023/08/14 04:09:44;;;;;;;0.10;0.10;;;;;;;19.19;83.07;97634.53;5064495;28;20041;-69
2023/08/14 04:12:11;;;;;;;0.10;0.10;;;;;;;19.24;82.67;97623.78;5072019;28;20481;-70
2023/08/14 04:14:39;;;;;;;0.40;0.40;;;;;;;19.30;82.95;97632.81;5071990;28;20406;-69
2023/08/14 04:17:08;;;;;;;0.10;0.10;;;;;;;19.30;82.78;97633.63;5070023;28;20051;-69
2023/08/14 04:19:36;;;;;;;0.10;0.10;;;;;;;19.28;82.47;97626.81;5069643;28;20044;-70
2023/08/14 04:22:04;;;;;;;0.10;0.10;;;;;;;19.24;82.91;97633.78;5069516;28;20513;-71
2023/08/14 04:24:31;;;;;;;0.10;0.10;;;;;;;19.25;82.81;97635.41;5073690;28;20036;-70
2023/08/14 04:26:59;;;;;;;0.10;0.10;;;;;;;19.19;82.50;97637.25;5069165;28;20045;-70
2023/08/14 04:29:27;;;;;;;0.10;0.10;;;;;;;19.12;82.97;97631.16;5072151;28;20040;-69
2023/08/14 04:31:55;;;;;;;0.00;0.00;;;;;;;19.13;82.99;97615.75;5072170;28;20048;-69
2023/08/14 04:34:24;;;;;;;0.10;0.10;;;;;;;19.22;82.98;97616.97;5060560;28;20051;-70
2023/08/14 04:36:54;;;;;;;0.20;0.20;;;;;;;19.26;82.62;97628.94;5070549;28;20054;-70
2023/08/14 04:39:21;;;;;;;0.10;0.10;;;;;;;19.04;83.39;97629.72;5071405;28;20033;-69
2023/08/14 04:41:49;;;;;;;0.10;0.10;;;;;;;19.17;83.07;97620.44;5070504;28;20055;-70
2023/08/14 04:44:17;;;;;;;0.10;0.10;;;;;;;19.28;82.85;97608.69;5065901;28;20075;-70
2023/08/14 04:46:45;;;;;;;0.30;0.30;;;;;;;19.33;82.11;97614.16;5068346;28;20420;-70
2023/08/14 04:49:29;;;;;;;0.10;0.10;;;;;;;19.33;82.23;97610.63;5069519;28;20040;-69
2023/08/14 04:51:58;;;;;;;0.20;0.20;;;;;;;19.33;82.09;97610.63;5069700;28;20068;-69
2023/08/14 04:54:26;;;;;;;0.10;0.10;;;;;;;19.37;82.04;97617.19;5068638;28;20032;-69
2023/08/14 04:56:54;;;;;;;0.10;0.10;;;;;;;19.30;82.39;97613.84;5064629;28;20452;-70
2023/08/14 04:59:21;;;;;;;0.10;0.10;;;;;;;19.17;82.51;97617.72;5065163;28;20036;-70
2023/08/14 05:01:49;;;;;;;0.10;0.10;;;;;;;19.06;83.19;97624.88;5080622;28;20048;-69
2023/08/14 05:04:19;;;;;;;0.10;0.10;;;;;;;19.10;83.41;97621.69;5065793;28;20052;-70
2023/08/14 05:06:48;;;;;;;0.10;0.10;;;;;;;19.16;83.10;97624.22;5063146;28;20037;-70
2023/08/14 05:09:16;;;;;;;0.10;0.10;;;;;;;19.19;83.16;97620.19;5069777;28;20139;-70
2023/08/14 05:11:53;;;;;;;0.28;0.28;;;;;;;19.18;83.04;97613.97;5061727;28;20476;-70
2023/08/14 05:14:21;;;;;;;0.10;0.10;;;;;;;19.18;83.21;97616.66;5070915;28;20041;-69
2023/08/14 05:16:50;;;;;;;0.10;0.10;;;;;;;19.20;83.05;97619.94;5071096;28;20041;-71
2023/08/14 05:19:18;;;;;;;0.10;0.10;;;;;;;19.21;82.72;97626.16;5070627;28;20042;-71
2023/08/14 05:21:46;;;;;;;0.10;0.10;;;;;;;19.15;82.83;97619.84;5082145;28;20408;-71
2023/08/14 05:24:16;;;;;;;0.08;0.08;;;;;;;19.16;82.82;97631.50;5063677;28;20048;-72
2023/08/14 05:26:43;;;;;;;0.10;0.10;;;;;;;19.15;82.75;97629.88;5073657;28;20109;-71
2023/08/14 05:29:11;;;;;;;0.10;0.10;;;;;;;19.14;82.77;97622.81;5062597;28;20080;-70
2023/08/14 05:31:39;;;;;;;0.20;0.20;;;;;;;19.11;83.04;97612.47;5071626;28;20037;-71
2023/08/14 05:34:06;;;;;;;0.00;0.00;;;;;;;19.14;82.98;97618.22;5069773;28;20048;-72
2023/08/14 05:36:34;;;;;;;0.10;0.10;;;;;;;19.26;82.75;97616.22;5067934;28;20394;-71
2023/08/14 05:39:02;;;;;;;0.10;0.10;;;;;;;19.27;82.20;97614.34;5063410;28;20048;-72
2023/08/14 05:41:31;;;;;;;0.10;0.10;;;;;;;19.30;82.00;97616.56;5065633;28;20540;-73
2023/08/14 05:43:59;;;;;;;0.10;0.10;;;;;;;19.36;82.41;97604.72;5071104;28;20174;-71
2023/08/14 05:46:26;;;;;;;0.10;0.10;;;;;;;19.43;82.02;97605.34;5064193;28;20044;-72
2023/08/14 05:48:54;;;;;;;0.10;0.10;;;;;;;19.53;81.88;97612.81;5070494;28;20056;-72
2023/08/14 05:51:22;;;;;;;0.10;0.10;;;;;;;19.56;81.78;97618.56;5067606;28;20040;-73
2023/08/14 05:53:49;;;;;;;0.10;0.10;;;;;;;19.52;81.77;97614.69;5069902;28;20052;-72
2023/08/14 05:56:17;;;;;;;0.20;0.20;;;;;;;19.49;82.11;97609.00;5070545;28;20044;-71
2023/08/14 05:58:46;;;;;;;0.10;0.10;;;;;;;19.53;82.03;97593.84;5067923;28;20040;-72
2023/08/14 06:01:14;;;;;;;0.10;0.10;;;;;;;19.59;81.68;97595.56;5069142;28;20043;-71
2023/08/14 06:03:42;;;;;;;0.10;0.10;;;;;;;19.65;81.81;97594.56;5067041;28;20048;-71
2023/08/14 06:06:12;;;;;;;0.10;0.10;;;;;;;19.73;81.25;97597.63;5063122;28;20047;-71
2023/08/14 06:08:40;;;;;;;0.10;0.10;;;;;;;19.82;81.25;97595.31;5066844;28;20112;-71
2023/08/14 06:11:07;;;;;;;0.40;0.40;;;;;;;19.92;80.70;97583.78;5063391;28;20486;-71
2023/08/14 06:13:35;;;;;;;0.10;0.10;;;;;;;19.99;80.87;97589.81;5063559;28;20123;-71
2023/08/14 06:16:04;;;;;;;0.15;0.15;;;;;;;20.03;80.35;97580.91;5064408;28;20044;-70
2023/08/14 06:18:32;;;;;;;0.10;0.10;;;;;;;20.14;79.95;97589.97;5066215;28;20040;-71
2023/08/14 06:21:00;;;;;;;0.28;0.28;;;;;;;20.27;80.17;97586.00;5066337;28;20067;-71
2023/08/14 06:23:27;;;;;;;0.10;0.10;;;;;;;20.39;79.53;97592.13;5055119;28;20531;-72
2023/08/14 06:25:55;;;;;;;0.10;0.10;;;;;;;20.51;78.84;97592.78;5067885;28;20037;-71
2023/08/14 06:28:23;;;;;;;0.03;0.03;;;;;;;20.60;78.89;97596.66;5065577;28;20081;-70
2023/08/14 06:30:50;;;;;;;0.10;0.10;;;;;;;20.76;78.31;97600.31;5068292;28;20048;-70
2023/08/14 06:33:19;;;;;;;0.10;0.10;;;;;;;20.92;78.08;97593.09;5070737;28;20049;-70
2023/08/14 06:35:47;;;;;;;0.10;0.10;;;;;;;20.99;77.04;97586.34;5067242;28;20067;-70
2023/08/14 06:38:15;;;;;;;0.10;0.10;;;;;;;21.11;77.01;97584.28;5065045;28;20052;-70
2023/08/14 06:40:42;;;;;;;0.10;0.10;;;;;;;21.22;76.96;97587.91;5054978;28;20394;-70
2023/08/14 06:43:10;;;;;;;0.00;0.00;;;;;;;21.32;76.26;97582.53;5070346;28;20059;-70
2023/08/14 06:45:38;;;;;;;0.10;0.10;;;;;;;21.42;76.38;97585.28;5058952;28;20047;-71
2023/08/14 06:48:06;;;;;;;0.10;0.10;;;;;;;21.48;75.83;97580.72;5068828;28;20074;-70
2023/08/14 06:50:35;;;;;;;0.00;0.00;;;;;;;21.52;75.48;97581.78;5071572;28;20036;-71
2023/08/14 06:53:03;;;;;;;0.10;0.10;;;;;;;21.61;75.74;97574.75;5065391;28;20066;-71
2023/08/14 06:55:31;;;;;;;0.10;0.10;;;;;;;21.68;74.95;97577.25;5065686;28;20060;-70
2023/08/14 06:57:58;;;;;;;0.10;0.10;;;;;;;21.71;74.88;97577.53;5075935;28;20057;-71
2023/08/14 07:00:26;;;;;;;0.35;0.35;;;;;;;21.73;75.30;97578.09;5066411;28;20436;-70
2023/08/14 07:02:54;;;;;;;0.10;0.10;;;;;;;21.72;74.87;97573.72;5071261;28;20040;-70
2023/08/14 07:05:21;;;;;;;0.10;0.10;;;;;;;21.75;75.17;97572.38;5061814;28;20054;-70
2023/08/14 07:07:51;;;;;;;0.10;0.00;;;;;;;21.83;75.14;97569.16;5069369;28;20036;-70
2023/08/14 07:10:18;;;;;;;0.10;0.10;;;;;;;21.91;74.84;97564.00;5063237;28;20075;-70
2023/08/14 07:12:48;;;;;;;0.10;0.10;;;;;;;22.02;74.54;97572.22;5065777;28;20052;-70
2023/08/14 07:15:16;;;;;;;0.00;0.00;;;;;;;22.17;74.43;97562.19;5070387;28;20041;-70
2023/08/14 07:17:43;;;;;;;0.10;0.10;;;;;;;22.27;73.74;97562.22;5066684;28;20071;-70
2023/08/14 07:20:12;;;;;;;0.10;0.10;;;;;;;22.43;73.29;97564.91;5067960;28;20520;-70
2023/08/14 07:22:42;;;;;;;0.10;0.10;;;;;;;22.55;72.55;97554.59;5062496;28;20512;-71
2023/08/14 07:25:11;;;;;;;0.10;0.10;;;;;;;22.77;72.29;97555.16;5072232;28;20081;-70
2023/08/14 07:27:39;;;;;;;0.10;0.10;;;;;;;22.92;71.98;97568.78;5068981;28;20396;-72
2023/08/14 07:30:09;;;;;;;0.10;0.10;;;;;;;23.10;71.39;97574.72;5071183;28;20044;-71
2023/08/14 07:32:37;;;;;;;0.10;0.10;;;;;;;23.29;70.91;97571.13;5073747;28;20501;-71
2023/08/14 07:35:06;;;;;;;0.03;0.03;;;;;;;23.54;69.63;97573.00;5067335;28;20063;-71
2023/08/14 07:37:33;;;;;;;0.10;0.10;;;;;;;23.76;68.83;97568.00;5068521;28;20036;-72
2023/08/14 07:40:01;;;;;;;0.00;0.00;;;;;;;23.94;68.95;97569.25;5067624;28;20075;-70
2023/08/14 07:42:30;;;;;;;0.10;0.10;;;;;;;24.02;67.19;97560.47;5072523;28;20094;-71
2023/08/14 07:44:58;;;;;;;0.10;0.10;;;;;;;24.18;67.26;97568.59;5068857;28;20044;-71
2023/08/14 07:47:25;;;;;;;0.10;0.10;;;;;;;24.38;66.51;97576.66;5071141;28;20112;-70
2023/08/14 07:49:53;;;;;;;0.00;0.00;;;;;;;24.71;64.53;97578.56;5072843;28;20043;-70
2023/08/14 07:52:21;;;;;;;0.10;0.10;;;;;;;24.78;63.71;97583.72;5065479;28;20033;-70
2023/08/14 07:54:48;;;;;;;0.03;0.03;;;;;;;24.73;63.82;97589.22;5064918;28;20044;-71
2023/08/14 07:57:16;;;;;;;0.00;0.00;;;;;;;24.57;64.09;97606.81;5065692;28;20071;-72
2023/08/14 07:59:45;;;;;;;0.10;0.10;;;;;;;24.50;64.73;97604.44;5071117;28;20123;-71
2023/08/14 08:02:13;;;;;;;0.05;0.05;;;;;;;24.51;64.81;97604.13;5062940;28;20040;-71
2023/08/14 08:04:40;;;;;;;0.10;0.10;;;;;;;24.47;64.82;97594.88;5059657;28;20612;-71
2023/08/14 08:07:08;;;;;;;0.00;0.00;;;;;;;24.41;64.65;97585.09;5066335;28;20044;-71
2023/08/14 08:09:37;;;;;;;0.03;0.03;;;;;;;24.42;65.03;97591.34;5064629;28;20056;-70
2023/08/14 08:12:06;;;;;;;0.00;0.00;;;;;;;24.42;65.37;97592.16;5076565;28;20052;-70
2023/08/14 08:14:34;;;;;;;0.00;0.00;;;;;;;24.46;65.20;97592.44;5067278;28;20040;-70
2023/08/14 08:17:04;;;;;;;0.00;0.00;;;;;;;24.47;64.57;97586.69;5056486;28;20049;-70
2023/08/14 08:19:31;;;;;;;0.10;0.10;;;;;;;24.55;63.84;97589.91;5071248;28;20068;-70
2023/08/14 08:21:59;;;;;;;0.10;0.10;;;;;;;24.59;63.81;97590.97;5069846;28;20121;-71
2023/08/14 08:24:27;;;;;;;0.10;0.10;;;;;;;24.61;63.88;97581.38;5064718;28;20037;-71
2023/08/14 08:26:54;;;;;;;0.00;0.00;;;;;;;24.66;64.11;97584.09;5060921;28;20122;-71
2023/08/14 08:29:22;;;;;;;0.00;0.00;;;;;;;24.69;63.60;97591.72;5057503;28;20044;-70
2023/08/14 08:31:50;;;;;;;0.10;0.10;;;;;;;24.77;64.13;97582.09;5056824;28;20083;-70
2023/08/14 08:34:19;;;;;;;0.00;0.00;;;;;;;24.92;63.47;97583.88;5064072;28;20139;-71
2023/08/14 08:36:47;;;;;;;0.00;0.00;;;;;;;25.04;62.57;97585.13;5061560;28;20054;-70
2023/08/14 08:39:14;;;;;;;0.00;0.00;;;;;;;25.01;62.54;97591.19;5068145;28;20115;-68
2023/08/14 08:41:47;;;;;;;0.00;0.00;;;;;;;24.93;62.96;97583.59;5062445;28;20044;-70
2023/08/14 08:44:19;;;;;;;0.00;0.00;;;;;;;24.96;63.10;97584.94;5055901;28;20489;-70
2023/08/14 08:46:52;;;;;;;0.08;0.08;;;;;;;25.04;63.65;97582.41;5065811;28;20036;-69
2023/08/14 08:49:21;;;;;;;0.10;0.10;;;;;;;25.13;62.83;97594.31;5060460;28;20132;-72
2023/08/14 08:51:49;;;;;;;0.00;0.00;;;;;;;25.14;62.85;97585.03;5058488;28;20041;-71
2023/08/14 08:54:17;;;;;;;0.00;0.00;;;;;;;25.17;63.14;97584.47;5061697;28;20115;-69
2023/08/14 08:56:45;;;;;;;0.00;0.00;;;;;;;25.29;62.51;97569.59;5068240;28;20115;-69
2023/08/14 08:59:15;;;;;;;0.10;0.10;;;;;;;25.41;62.19;97584.50;5066550;28;20119;-69
2023/08/14 09:01:43;;;;;;;0.00;0.00;;;;;;;25.52;62.26;97586.00;5065246;28;20051;-68
2023/08/14 09:04:11;;;;;;;0.00;0.00;;;;;;;25.63;62.25;97581.25;5062126;28;20045;-69
2023/08/14 09:06:40;;;;;;;0.10;0.10;;;;;;;25.69;61.82;97585.56;5068303;28;20064;-69
2023/08/14 09:09:09;;;;;;;0.00;0.00;;;;;;;25.61;61.75;97575.28;5061617;28;20064;-70
2023/08/14 09:11:37;;;;;;;0.00;0.00;;;;;;;25.55;61.84;97582.66;5065758;28;20086;-70
2023/08/14 09:14:05;;;;;;;0.00;0.00;;;;;;;25.66;62.02;97579.84;5067013;28;20057;-69
2023/08/14 09:16:33;;;;;;;0.03;0.03;;;;;;;25.90;61.06;97575.16;5060363;28;20051;-71
2023/08/14 09:19:01;;;;;;;0.10;0.10;;;;;;;26.09;61.16;97580.66;5062766;28;20047;-69
2023/08/14 09:21:29;;;;;;;0.00;0.00;;;;;;;26.34;59.37;97582.25;5067690;28;20481;-70
2023/08/14 09:23:59;;;;;;;0.10;0.10;;;;;;;26.59;58.05;97568.16;5062912;28;20448;-70
2023/08/14 09:26:26;;;;;;;0.10;0.10;;;;;;;26.88;57.55;97574.25;5061197;28;20063;-70
2023/08/14 09:28:54;;;;;;;0.00;0.00;;;;;;;26.80;57.56;97580.41;5080664;28;20044;-69
2023/08/14 09:31:22;;;;;;;0.00;0.00;;;;;;;26.78;57.47;97574.44;5075272;28;20115;-69
2023/08/14 09:33:50;;;;;;;0.00;0.00;;;;;;;26.93;57.20;97567.91;5070080;28;20111;-69
2023/08/14 09:36:18;;;;;;;0.00;0.00;;;;;;;27.03;57.60;97573.19;5072680;28;20040;-70
2023/08/14 09:38:45;;;;;;;0.00;0.00;;;;;;;27.26;56.70;97564.00;5067498;28;20058;-70
2023/08/14 09:41:14;;;;;;;0.00;0.00;;;;;;;27.48;56.38;97570.72;5081213;28;20075;-70
2023/08/14 09:43:44;;;;;;;0.10;0.10;;;;;;;27.58;55.67;97568.63;5071989;28;20037;-70
2023/08/14 09:46:12;;;;;;;0.03;0.03;;;;;;;27.89;55.14;97579.78;5063175;28;20040;-70
2023/08/14 09:48:41;;;;;;;0.08;0.08;;;;;;;28.06;54.41;97557.16;5067947;28;20040;-72
2023/08/14 09:51:13;;;;;;;0.00;0.00;;;;;;;28.07;53.68;97570.59;5068318;28;20045;-70
2023/08/14 09:53:45;;;;;;;0.10;0.10;;;;;;;28.19;53.91;97566.53;5067975;28;20044;-70
2023/08/14 09:56:13;;;;;;;0.00;0.00;;;;;;;28.44;53.18;97564.00;5061457;28;20052;-70
2023/08/14 09:58:42;;;;;;;0.00;0.00;;;;;;;28.54;53.77;97570.38;5067082;28;20037;-70
2023/08/14 10:01:13;;;;;;;0.00;0.00;;;;;;;28.54;52.82;97564.88;5070624;28;20061;-72
2023/08/14 10:03:41;;;;;;;0.10;0.08;;;;;;;28.37;52.98;97563.63;5068541;28;20040;-70
2023/08/14 10:06:12;;;;;;;0.00;0.00;;;;;;;28.17;53.42;97565.97;5070621;28;20044;-70
2023/08/14 10:08:41;;;;;;;0.00;0.00;;;;;;;28.35;53.41;97574.09;5071313;28;20043;-70
2023/08/14 10:11:12;;;;;;;0.00;0.00;;;;;;;28.48;53.06;97572.44;5065818;28;20044;-70
2023/08/14 10:13:52;;;;;;;0.10;0.10;;;;;;;28.39;52.79;97569.63;5067824;28;20036;-71
2023/08/14 10:16:23;;;;;;;0.00;0.00;;;;;;;28.46;52.88;97572.72;5066723;28;20137;-70
2023/08/14 10:18:54;;;;;;;0.00;0.00;;;;;;;28.59;52.78;97565.56;5068434;28;20116;-71
2023/08/14 10:21:25;;;;;;;0.00;0.00;;;;;;;28.72;52.24;97566.63;5068355;28;20089;-71
2023/08/14 10:23:55;;;;;;;0.00;0.00;;;;;;;29.03;52.14;97572.19;5067929;28;20044;-71
2023/08/14 10:26:23;;;;;;;0.00;0.00;;;;;;;29.17;51.50;97564.69;5064572;28;20522;-72
2023/08/14 10:28:57;;;;;;;0.00;0.00;;;;;;;29.30;50.52;97569.25;5058456;28;20485;-71
2023/08/14 10:31:26;;;;;;;0.15;0.15;;;;;;;29.27;50.33;97566.34;5078936;28;20492;-71
2023/08/14 10:33:54;;;;;;;0.00;0.00;;;;;;;29.20;49.50;97567.59;5057970;28;20051;-73
2023/08/14 10:36:22;;;;;;;0.00;0.00;;;;;;;29.38;49.60;97579.50;5063953;28;20440;-71
2023/08/14 10:38:50;;;;;;;0.00;0.00;;;;;;;29.44;49.53;97577.44;5066977;28;20039;-71
2023/08/14 10:41:34;;;;;;;0.00;0.00;;;;;;;29.61;48.85;97562.94;5066017;28;20047;-71
2023/08/14 10:44:06;;;;;;;0.20;0.00;;;;;;;29.72;47.88;97569.78;5051947;28;20029;-71
2023/08/14 10:46:38;;;;;;;0.00;0.00;;;;;;;29.78;47.93;97561.06;5069517;28;20050;-71
2023/08/14 10:49:05;;;;;;;0.00;0.00;;;;;;;29.64;48.33;97552.13;5071205;28;20041;-71
2023/08/14 10:51:34;;;;;;;0.00;0.00;;;;;;;29.81;48.74;97554.09;5060188;28;20051;-71
2023/08/14 10:54:10;;;;;;;0.00;0.00;;;;;;;30.06;47.87;97550.63;5069704;28;20099;-72
2023/08/14 10:56:43;;;;;;;0.00;0.00;;;;;;;30.13;48.13;97550.13;5066463;28;20037;-71
2023/08/14 10:59:22;;;;;;;0.00;0.00;;;;;;;30.44;47.73;97539.78;5069501;28;20131;-71
2023/08/14 11:01:52;;;;;;;0.00;0.00;;;;;;;30.39;47.39;97544.66;5057423;28;20578;-71
2023/08/14 11:04:20;;;;;;;0.00;0.00;;;;;;;30.39;48.47;97545.47;5064804;28;20040;-71
2023/08/14 11:07:08;;;;;;;0.00;0.00;;;;;;;30.63;47.38;97534.75;5059227;28;20037;-72
2023/08/14 11:09:37;;;;;;;0.00;0.00;;;;;;;30.50;46.78;97541.25;5062155;28;20045;-73
2023/08/14 11:12:06;;;;;;;0.00;0.00;;;;;;;30.39;47.74;97539.94;5060949;28;20123;-71
2023/08/14 11:14:38;;;;;;;0.00;0.00;;;;;;;30.24;47.94;97534.91;5069147;28;20037;-70
2023/08/14 11:17:07;;;;;;;0.00;0.00;;;;;;;30.31;47.38;97537.19;5072434;28;20071;-71
2023/08/14 11:19:35;;;;;;;0.03;0.03;;;;;;;30.40;47.56;97541.56;5072060;28;20045;-71
2023/08/14 11:22:03;;;;;;;0.00;0.00;;;;;;;30.47;47.74;97527.28;5072442;28;20700;-71
2023/08/14 11:24:33;;;;;;;0.00;0.00;;;;;;;30.50;47.38;97540.44;5063462;28;20115;-71
2023/08/14 11:27:01;;;;;;;0.10;0.10;;;;;;;30.41;48.39;97543.19;5062654;28;20037;-72
2023/08/14 11:29:29;;;;;;;0.00;0.00;;;;;;;30.46;47.50;97529.25;5063723;28;20103;-72
2023/08/14 11:32:01;;;;;;;0.00;0.00;;;;;;;30.05;48.03;97539.91;5067813;28;20044;-70
2023/08/14 11:34:32;;;;;;;0.00;0.00;;;;;;;30.01;47.62;97542.50;5063253;28;20508;-70
2023/08/14 11:37:02;;;;;;;0.00;0.00;;;;;;;29.98;48.10;97540.41;5065907;28;20052;-71
2023/08/14 11:39:32;;;;;;;0.10;0.10;;;;;;;30.20;47.76;97537.53;5061596;28;20405;-70
2023/08/14 11:42:01;;;;;;;0.00;0.00;;;;;;;30.17;47.72;97531.84;5067237;28;20050;-70